Time;durP1;ratioP1;P1;durP2;ratioP2;P2;SDS_P1;SDS_P2;PMS_P1;PMS_P2;Temp;Humidity;BMP_temperature;BMP_pressure;BME280_temperature;BME280_humidity;BME280_pressure;Samples;Min_cycle;Max_cycle;Signal;HPM_P1;HPM_P2
2023/11/25 00:00:48;;;;;;;3.20;0.30;;;6.10;99.90;;;;;;6209063;23;20008;-75
2023/11/25 00:03:15;;;;;;;3.67;0.75;;;6.20;99.90;;;;;;6208336;23;20091;-75
2023/11/25 00:05:41;;;;;;;6.20;0.82;;;6.30;99.90;;;;;;6207382;23;20013;-76
2023/11/25 00:08:07;;;;;;;14.68;2.60;;;6.30;99.90;;;;;;6209824;23;20000;-76
2023/11/25 00:10:33;;;;;;;7.43;0.82;;;6.20;99.90;;;;;;6208881;23;20039;-76
2023/11/25 00:12:59;;;;;;;4.72;0.90;;;6.10;99.90;;;;;;6210149;23;20095;-77
2023/11/25 00:15:24;;;;;;;9.95;1.60;;;6.00;99.90;;;;;;6209863;23;20433;-76
2023/11/25 00:17:52;;;;;;;9.57;1.15;;;6.00;99.90;;;;;;6206437;23;20011;-76
2023/11/25 00:20:18;;;;;;;11.10;1.25;;;5.90;99.90;;;;;;6208319;23;20009;-76
2023/11/25 00:22:44;;;;;;;7.18;0.55;;;5.90;99.90;;;;;;6207936;23;20494;-77
2023/11/25 00:25:10;;;;;;;3.95;0.63;;;5.80;99.90;;;;;;6209653;23;20029;-77
2023/11/25 00:27:36;;;;;;;11.05;1.45;;;5.80;99.90;;;;;;6207815;23;20083;-77
2023/11/25 00:30:04;;;;;;;15.05;0.90;;;5.80;99.90;;;;;;6208094;23;20406;-75
2023/11/25 00:32:30;;;;;;;18.60;2.22;;;5.80;99.90;;;;;;6208694;23;20086;-76
2023/11/25 00:34:56;;;;;;;7.70;1.83;;;5.90;99.90;;;;;;6206889;23;20016;-76
2023/11/25 00:37:22;;;;;;;13.30;1.33;;;5.90;99.90;;;;;;6207170;23;20079;-76
2023/11/25 00:39:48;;;;;;;10.38;1.23;;;5.90;99.90;;;;;;6205442;23;20040;-77
2023/11/25 00:42:14;;;;;;;10.68;1.85;;;5.80;99.90;;;;;;6207435;23;20016;-76
2023/11/25 00:44:40;;;;;;;15.73;2.63;;;5.80;99.90;;;;;;6206973;23;20062;-76
2023/11/25 00:47:11;;;;;;;11.65;1.17;;;5.70;99.90;;;;;;6209395;23;20005;-78
2023/11/25 00:49:38;;;;;;;14.73;2.20;;;5.70;99.90;;;;;;6209079;23;20389;-77
2023/11/25 00:52:06;;;;;;;9.73;0.93;;;5.70;99.90;;;;;;6210933;23;20434;-77
2023/11/25 00:54:31;;;;;;;9.18;1.70;;;5.70;99.90;;;;;;6209921;23;20017;-77
2023/11/25 00:56:58;;;;;;;10.80;2.40;;;5.70;99.90;;;;;;6207787;23;20012;-77
2023/11/25 00:59:23;;;;;;;13.43;1.80;;;5.60;99.90;;;;;;6209701;23;20065;-76
2023/11/25 01:01:49;;;;;;;6.78;1.25;;;5.60;99.90;;;;;;6209495;23;20017;-77
2023/11/25 01:04:15;;;;;;;6.68;0.75;;;5.60;99.90;;;;;;6209303;23;20473;-75
2023/11/25 01:06:46;;;;;;;9.45;2.25;;;5.50;99.90;;;;;;6208892;22;20019;-77
2023/11/25 01:09:12;;;;;;;2.90;0.82;;;5.40;99.90;;;;;;6211644;23;20088;-77
2023/11/25 01:11:39;;;;;;;10.00;1.73;;;5.40;99.90;;;;;;6209723;23;20009;-79
2023/11/25 01:14:05;;;;;;;9.93;1.05;;;5.30;99.90;;;;;;6209796;23;20015;-77
2023/11/25 01:16:31;;;;;;;6.10;1.50;;;5.20;99.90;;;;;;6210135;23;20020;-77
2023/11/25 01:18:56;;;;;;;4.38;0.90;;;5.20;99.90;;;;;;6208089;23;20005;-76
2023/11/25 01:21:22;;;;;;;14.68;1.75;;;5.10;99.90;;;;;;6209380;23;20019;-76
2023/11/25 01:23:47;;;;;;;7.03;0.95;;;5.00;99.90;;;;;;6207835;23;20009;-76
2023/11/25 01:26:13;;;;;;;7.45;1.15;;;4.90;99.90;;;;;;6209622;23;20017;-76
2023/11/25 01:28:42;;;;;;;6.28;1.20;;;4.90;99.90;;;;;;6208183;23;20023;-77
2023/11/25 01:31:08;;;;;;;2.92;0.50;;;4.80;99.90;;;;;;6210154;23;20009;-77
2023/11/25 01:33:33;;;;;;;8.00;0.75;;;4.80;99.90;;;;;;6210485;23;20335;-77
2023/11/25 01:35:59;;;;;;;9.68;1.63;;;4.70;99.90;;;;;;6211501;23;20020;-77
2023/11/25 01:38:24;;;;;;;7.20;1.45;;;4.60;99.90;;;;;;6209598;23;20517;-76
2023/11/25 01:40:52;;;;;;;11.63;1.70;;;4.60;99.90;;;;;;6210364;23;20058;-76
2023/11/25 01:43:23;;;;;;;8.40;1.88;;;4.50;99.90;;;;;;6211552;23;20472;-75
2023/11/25 01:45:49;;;;;;;;;;;4.50;99.90;;;;;;6208399;23;20082;-77
2023/11/25 01:48:15;;;;;;;7.63;1.08;;;4.50;99.90;;;;;;6209534;23;19912;-76
2023/11/25 01:50:40;;;;;;;8.18;1.48;;;4.40;99.90;;;;;;6210013;23;20021;-79
2023/11/25 01:53:07;;;;;;;7.20;0.98;;;4.40;99.90;;;;;;6210968;23;20062;-76
2023/11/25 01:55:33;;;;;;;7.43;1.02;;;4.40;99.90;;;;;;6208650;23;20389;-76
2023/11/25 01:57:59;;;;;;;6.88;0.90;;;4.40;99.90;;;;;;6211052;23;20001;-76
2023/11/25 02:00:25;;;;;;;16.50;1.58;;;4.30;99.90;;;;;;6211053;23;20009;-78
2023/11/25 02:02:50;;;;;;;10.93;1.95;;;4.30;99.90;;;;;;6209817;23;20127;-78
2023/11/25 02:05:16;;;;;;;11.80;1.45;;;4.30;99.90;;;;;;6209346;23;20141;-76
2023/11/25 02:07:42;;;;;;;10.57;1.15;;;4.30;99.90;;;;;;6209822;23;20062;-76
2023/11/25 02:10:10;;;;;;;7.40;1.00;;;4.30;99.90;;;;;;6211119;23;20509;-76
2023/11/25 02:12:38;;;;;;;5.43;0.80;;;4.30;99.90;;;;;;6208246;23;20005;-77
2023/11/25 02:15:10;;;;;;;13.40;1.70;;;4.30;99.90;;;;;;6210927;23;19996;-76
2023/11/25 02:17:38;;;;;;;23.20;3.03;;;4.30;99.90;;;;;;6208165;23;20059;-76
2023/11/25 02:20:06;;;;;;;12.45;2.05;;;4.30;99.90;;;;;;6211039;23;20013;-77
2023/11/25 02:22:31;;;;;;;10.35;2.03;;;4.20;99.90;;;;;;6209675;23;20021;-76
2023/11/25 02:24:57;;;;;;;13.80;2.65;;;4.20;99.90;;;;;;6209769;23;20087;-77
2023/11/25 02:27:23;;;;;;;18.83;2.47;;;4.20;99.90;;;;;;6208819;23;20435;-76
2023/11/25 02:29:49;;;;;;;10.55;1.80;;;4.20;99.90;;;;;;6208252;23;20434;-76
2023/11/25 02:32:15;;;;;;;8.57;0.90;;;4.20;99.90;;;;;;6209059;23;20082;-77
2023/11/25 02:34:40;;;;;;;7.68;1.45;;;4.20;99.90;;;;;;6209480;23;20395;-77
2023/11/25 02:37:06;;;;;;;9.18;2.47;;;4.20;99.90;;;;;;6210636;23;20115;-75
2023/11/25 02:39:34;;;;;;;12.43;1.10;;;4.30;99.90;;;;;;6208706;23;20103;-77
2023/11/25 02:41:59;;;;;;;16.30;1.77;;;4.30;99.90;;;;;;6208576;23;20020;-76
2023/11/25 02:44:27;;;;;;;13.55;2.17;;;4.30;99.90;;;;;;6208927;23;20469;-76
2023/11/25 02:46:53;;;;;;;18.05;1.38;;;4.30;99.90;;;;;;6207560;23;20074;-78
2023/11/25 02:49:20;;;;;;;13.73;2.20;;;4.20;99.90;;;;;;6209161;23;20027;-75
2023/11/25 02:51:48;;;;;;;12.20;1.33;;;4.20;99.90;;;;;;6209209;23;20013;-76
2023/11/25 02:54:14;;;;;;;17.08;1.65;;;4.20;99.90;;;;;;6208739;23;20036;-76
2023/11/25 02:56:40;;;;;;;14.13;2.75;;;4.20;99.90;;;;;;6207369;23;20413;-76
2023/11/25 02:59:05;;;;;;;18.85;1.92;;;4.20;99.90;;;;;;6210780;23;20039;-76
2023/11/25 03:01:33;;;;;;;6.30;0.93;;;4.20;99.90;;;;;;6210483;23;20066;-76
2023/11/25 03:04:04;;;;;;;15.10;3.03;;;4.20;99.90;;;;;;6210324;23;20008;-76
2023/11/25 03:06:30;;;;;;;7.72;1.30;;;4.20;99.90;;;;;;6208525;23;20028;-76
2023/11/25 03:08:57;;;;;;;8.15;1.58;;;4.30;99.90;;;;;;6209401;23;20012;-77
2023/11/25 03:11:22;;;;;;;9.95;1.67;;;4.20;99.90;;;;;;6208711;23;20009;-78
2023/11/25 03:13:48;;;;;;;11.68;2.33;;;4.30;99.90;;;;;;6209378;23;20616;-76
2023/11/25 03:16:14;;;;;;;26.55;3.35;;;4.30;99.90;;;;;;6210619;23;20008;-76
2023/11/25 03:18:40;;;;;;;8.55;1.75;;;4.30;99.90;;;;;;6207397;23;20062;-76
2023/11/25 03:21:08;;;;;;;13.32;1.58;;;4.30;99.90;;;;;;6207963;23;20110;-78
2023/11/25 03:23:33;;;;;;;10.73;2.63;;;4.30;99.90;;;;;;6207560;23;20024;-76
2023/11/25 03:25:59;;;;;;;14.10;1.38;;;4.30;99.90;;;;;;6208781;23;20016;-77
2023/11/25 03:28:25;;;;;;;9.05;1.33;;;4.20;99.90;;;;;;6210303;23;20019;-77
2023/11/25 03:30:50;;;;;;;16.23;1.83;;;4.20;99.90;;;;;;6206982;23;20397;-76
2023/11/25 03:33:16;;;;;;;13.48;2.05;;;4.20;99.90;;;;;;6208171;23;20019;-77
2023/11/25 03:35:42;;;;;;;9.80;1.58;;;4.20;99.90;;;;;;6206752;23;20683;-76
2023/11/25 03:38:08;;;;;;;23.35;1.55;;;4.20;99.90;;;;;;6210231;23;20012;-76
2023/11/25 03:40:34;;;;;;;13.57;1.08;;;4.20;99.90;;;;;;6209565;23;20005;-77
2023/11/25 03:43:00;;;;;;;14.32;1.23;;;4.20;99.90;;;;;;6208098;23;20338;-76
2023/11/25 03:45:26;;;;;;;10.05;1.73;;;4.30;99.90;;;;;;6207779;23;20067;-76
2023/11/25 03:47:53;;;;;;;7.63;1.42;;;4.40;99.90;;;;;;6207191;23;20012;-77
2023/11/25 03:50:18;;;;;;;15.25;1.75;;;4.60;99.90;;;;;;6208760;23;20013;-77
2023/11/25 03:52:45;;;;;;;11.40;1.90;;;4.80;99.90;;;;;;6208882;23;20009;-77
2023/11/25 03:55:11;;;;;;;20.40;2.05;;;4.80;99.90;;;;;;6208374;23;20431;-76
2023/11/25 03:57:41;;;;;;;10.85;1.80;;;4.90;99.90;;;;;;6208957;23;20075;-76
2023/11/25 04:00:14;;;;;;;19.75;3.30;;;5.00;99.90;;;;;;6208828;23;20015;-76
2023/11/25 04:02:44;;;;;;;9.40;1.40;;;5.00;99.90;;;;;;6207155;23;20063;-77
2023/11/25 04:05:13;;;;;;;7.13;1.45;;;5.10;99.90;;;;;;6210035;23;20091;-77
2023/11/25 04:07:39;;;;;;;13.50;2.03;;;5.10;99.90;;;;;;6208594;23;20032;-77
2023/11/25 04:10:12;;;;;;;10.32;1.02;;;5.20;99.90;;;;;;6208522;23;20283;-76
2023/11/25 04:12:42;;;;;;;10.55;1.58;;;5.10;99.90;;;;;;6209172;23;20008;-78
2023/11/25 04:15:10;;;;;;;5.13;0.77;;;5.10;99.90;;;;;;6208481;23;20005;-77
2023/11/25 04:17:36;;;;;;;12.05;1.85;;;5.10;99.90;;;;;;6208800;23;20008;-76
2023/11/25 04:20:12;;;;;;;8.35;0.90;;;5.10;99.90;;;;;;6208379;23;20043;-76
2023/11/25 04:22:39;;;;;;;5.72;1.55;;;5.20;99.90;;;;;;6206987;23;20023;-77
2023/11/25 04:25:05;;;;;;;4.57;0.75;;;5.20;99.90;;;;;;6208064;23;20008;-77
2023/11/25 04:27:31;;;;;;;2.63;0.25;;;5.20;99.90;;;;;;6209721;23;20378;-76
2023/11/25 04:29:57;;;;;;;5.70;0.50;;;5.30;99.90;;;;;;6208645;23;20004;-76
2023/11/25 04:32:23;;;;;;;3.80;0.55;;;5.20;99.90;;;;;;6208131;23;20028;-77
2023/11/25 04:34:48;;;;;;;12.13;1.35;;;5.20;99.90;;;;;;6206784;23;20126;-78
2023/11/25 04:37:14;;;;;;;6.30;0.90;;;5.20;99.90;;;;;;6209901;23;20089;-78
2023/11/25 04:39:40;;;;;;;0.70;0.20;;;5.20;99.90;;;;;;6208738;23;20012;-76
2023/11/25 04:42:05;;;;;;;2.13;0.25;;;5.20;99.90;;;;;;6209702;23;20028;-78
2023/11/25 04:44:32;;;;;;;3.05;0.52;;;5.20;99.90;;;;;;6209854;23;20071;-78
2023/11/25 04:46:57;;;;;;;2.50;0.25;;;5.20;99.90;;;;;;6206222;23;20008;-77
2023/11/25 04:49:24;;;;;;;6.35;0.40;;;5.30;99.90;;;;;;6208459;23;20136;-76
2023/11/25 04:51:50;;;;;;;1.75;0.32;;;5.30;99.90;;;;;;6208774;23;20044;-78
2023/11/25 04:54:15;;;;;;;5.75;0.30;;;5.40;99.90;;;;;;6207911;23;20021;-78
2023/11/25 04:56:41;;;;;;;4.50;0.20;;;5.40;99.90;;;;;;6208508;23;20019;-77
2023/11/25 04:59:06;;;;;;;2.75;0.30;;;5.40;99.90;;;;;;6207922;23;20016;-77
2023/11/25 05:01:32;;;;;;;4.22;1.25;;;5.40;99.90;;;;;;6207924;23;20019;-76
2023/11/25 05:03:58;;;;;;;6.25;0.85;;;5.30;99.90;;;;;;6208892;23;20028;-77
2023/11/25 05:06:24;;;;;;;1.45;0.03;;;5.30;99.90;;;;;;6209947;23;20020;-76
2023/11/25 05:08:49;;;;;;;3.70;0.25;;;5.10;99.90;;;;;;6206392;23;20008;-78
2023/11/25 05:11:15;;;;;;;1.88;0.20;;;5.10;99.90;;;;;;6208269;23;20017;-78
2023/11/25 05:13:41;;;;;;;1.73;0.20;;;5.00;99.90;;;;;;6208372;23;20043;-77
2023/11/25 05:16:07;;;;;;;0.90;0.30;;;4.90;99.90;;;;;;6209858;23;20005;-76
2023/11/25 05:18:32;;;;;;;4.57;1.27;;;4.90;99.90;;;;;;6208025;23;20389;-76
2023/11/25 05:20:58;;;;;;;0.77;0.10;;;4.80;99.90;;;;;;6206741;23;20024;-77
2023/11/25 05:23:23;;;;;;;4.63;0.30;;;4.70;99.90;;;;;;6209685;23;20017;-76
2023/11/25 05:25:49;;;;;;;4.72;0.45;;;4.60;99.90;;;;;;6206792;23;20019;-78
2023/11/25 05:28:14;;;;;;;3.33;0.30;;;4.60;99.90;;;;;;6208282;23;20012;-76
2023/11/25 05:30:41;;;;;;;5.75;0.65;;;4.50;99.90;;;;;;6207178;23;20063;-79
2023/11/25 05:33:08;;;;;;;4.93;0.40;;;4.50;99.90;;;;;;6207888;23;20657;-78
2023/11/25 05:35:33;;;;;;;2.53;0.20;;;4.50;99.90;;;;;;6209820;23;20320;-78
2023/11/25 05:37:59;;;;;;;8.68;1.38;;;4.50;99.90;;;;;;6208463;23;20021;-77
2023/11/25 05:40:29;;;;;;;7.55;0.55;;;4.50;99.90;;;;;;6209789;23;20438;-78
2023/11/25 05:42:57;;;;;;;2.03;0.30;;;4.60;99.90;;;;;;6209245;23;20040;-78
2023/11/25 05:45:26;;;;;;;5.10;0.63;;;4.60;99.90;;;;;;6209331;23;20009;-71
2023/11/25 05:47:52;;;;;;;7.97;0.50;;;4.70;99.90;;;;;;6210429;23;20020;-76
2023/11/25 05:50:20;;;;;;;6.60;0.82;;;4.70;99.90;;;;;;6209829;23;20021;-77
2023/11/25 05:52:46;;;;;;;2.03;0.52;;;4.80;99.90;;;;;;6210250;23;20462;-78
2023/11/25 05:55:11;;;;;;;5.63;1.25;;;4.80;99.90;;;;;;6211150;23;20020;-76
2023/11/25 05:57:37;;;;;;;4.72;0.50;;;4.70;99.90;;;;;;6210262;23;20014;-77
2023/11/25 06:00:04;;;;;;;8.05;0.50;;;4.70;99.90;;;;;;6209279;23;20012;-76
2023/11/25 06:02:29;;;;;;;2.50;0.30;;;4.70;99.90;;;;;;6209264;23;20454;-76
2023/11/25 06:04:55;;;;;;;7.75;0.77;;;4.80;99.90;;;;;;6208075;23;20016;-78
2023/11/25 06:07:20;;;;;;;3.22;0.35;;;4.90;99.90;;;;;;6209854;23;20044;-77
2023/11/25 06:09:46;;;;;;;2.85;0.57;;;5.00;99.90;;;;;;6210251;23;20012;-78
2023/11/25 06:12:13;;;;;;;3.75;0.40;;;5.00;99.90;;;;;;6211525;23;20012;-76
2023/11/25 06:14:39;;;;;;;6.20;0.40;;;5.00;99.90;;;;;;6210145;23;20016;-77
2023/11/25 06:17:07;;;;;;;5.60;0.85;;;4.90;99.90;;;;;;6211524;23;20005;-81
2023/11/25 06:19:33;;;;;;;7.15;0.70;;;4.80;99.90;;;;;;6210298;23;20506;-78
2023/11/25 06:21:59;;;;;;;2.47;0.32;;;4.80;99.90;;;;;;6208683;23;20035;-77
2023/11/25 06:24:25;;;;;;;4.22;0.57;;;4.70;99.90;;;;;;6210399;23;20021;-77
2023/11/25 06:26:50;;;;;;;5.78;0.60;;;4.60;99.90;;;;;;6210985;23;20023;-77
2023/11/25 06:29:16;;;;;;;1.58;0.20;;;4.60;99.90;;;;;;6212199;23;20008;-77
2023/11/25 06:31:44;;;;;;;6.60;0.85;;;4.50;99.90;;;;;;6208093;23;20017;-78
2023/11/25 06:34:10;;;;;;;3.20;0.52;;;4.50;99.90;;;;;;6210408;23;20040;-77
2023/11/25 06:36:35;;;;;;;7.30;1.27;;;4.50;99.90;;;;;;6211329;23;20068;-78
2023/11/25 06:39:02;;;;;;;1.92;0.38;;;4.40;99.90;;;;;;6211540;23;20009;-77
2023/11/25 06:41:27;;;;;;;3.63;0.20;;;4.40;99.90;;;;;;6212073;23;20017;-77
2023/11/25 06:43:53;;;;;;;4.45;0.52;;;4.30;99.90;;;;;;6210342;23;20087;-79
2023/11/25 06:46:22;;;;;;;3.60;0.40;;;4.30;99.90;;;;;;6210745;23;20389;-77
2023/11/25 06:48:48;;;;;;;6.72;0.47;;;4.40;99.90;;;;;;6209458;23;20017;-77
2023/11/25 06:51:13;;;;;;;8.38;1.08;;;4.50;99.90;;;;;;6209791;23;20000;-78
2023/11/25 06:53:42;;;;;;;13.05;2.35;;;4.50;99.90;;;;;;6211199;23;20009;-78
2023/11/25 06:56:10;;;;;;;4.03;0.47;;;4.70;99.90;;;;;;6210744;23;20012;-77
2023/11/25 06:58:37;;;;;;;10.95;1.02;;;4.80;99.90;;;;;;6211776;23;20044;-77
2023/11/25 07:01:04;;;;;;;7.75;0.98;;;4.90;99.90;;;;;;6209597;23;20082;-77
2023/11/25 07:03:30;;;;;;;5.78;0.60;;;5.00;99.90;;;;;;6212237;23;20025;-79
2023/11/25 07:05:57;;;;;;;12.30;1.48;;;5.00;99.90;;;;;;6209049;23;20465;-76
2023/11/25 07:08:24;;;;;;;7.57;1.65;;;5.00;99.90;;;;;;6210059;23;20354;-77
2023/11/25 07:10:59;;;;;;;3.05;0.50;;;5.10;99.90;;;;;;6210606;23;20020;-79
2023/11/25 07:13:27;;;;;;;7.90;0.60;;;5.10;99.90;;;;;;6210282;23;20020;-75
2023/11/25 07:15:53;;;;;;;6.57;0.98;;;5.10;99.90;;;;;;6210360;23;20339;-77
2023/11/25 07:18:19;;;;;;;3.55;0.98;;;5.10;99.90;;;;;;6211011;23;20009;-77
2023/11/25 07:20:46;;;;;;;9.38;0.88;;;5.10;99.90;;;;;;6212679;23;20062;-78
2023/11/25 07:23:13;;;;;;;8.45;1.15;;;5.20;99.90;;;;;;6212845;23;20039;-78
2023/11/25 07:25:41;;;;;;;5.45;1.05;;;5.20;99.90;;;;;;6209783;23;20023;-78
2023/11/25 07:28:09;;;;;;;2.28;0.30;;;5.30;99.90;;;;;;6210735;23;20043;-80
2023/11/25 07:30:36;;;;;;;7.88;1.15;;;5.30;99.90;;;;;;6209441;23;20660;-79
2023/11/25 07:33:03;;;;;;;10.50;1.23;;;5.30;99.90;;;;;;6210375;23;20036;-79
2023/11/25 07:35:29;;;;;;;11.85;0.98;;;5.20;99.90;;;;;;6212425;23;20015;-79
2023/11/25 07:37:55;;;;;;;3.70;0.40;;;5.20;99.90;;;;;;6209649;23;20021;-79
2023/11/25 07:40:20;;;;;;;1.50;0.22;;;5.20;99.90;;;;;;6212634;23;20446;-77
2023/11/25 07:42:48;;;;;;;5.75;1.15;;;5.20;99.90;;;;;;6212160;23;20016;-79
2023/11/25 07:45:14;;;;;;;0.60;0.30;;;5.20;99.90;;;;;;6213090;23;20032;-78
2023/11/25 07:47:43;;;;;;;8.05;0.45;;;5.20;99.90;;;;;;6208721;23;20012;-76
2023/11/25 07:50:10;;;;;;;9.57;1.40;;;5.10;99.90;;;;;;6211238;23;20012;-79
2023/11/25 07:52:36;;;;;;;6.35;1.13;;;5.10;99.90;;;;;;6211418;23;20015;-79
2023/11/25 07:55:02;;;;;;;2.33;0.98;;;5.10;99.90;;;;;;6210523;23;20008;-78
2023/11/25 07:57:27;;;;;;;10.13;0.70;;;5.10;99.90;;;;;;6212118;23;20070;-78
2023/11/25 07:59:53;;;;;;;5.78;0.32;;;5.00;99.90;;;;;;6211707;23;20005;-77
2023/11/25 08:02:18;;;;;;;9.40;0.85;;;5.10;99.90;;;;;;6209430;23;20017;-78
2023/11/25 08:04:44;;;;;;;7.63;1.00;;;5.20;99.90;;;;;;6211692;23;20024;-78
2023/11/25 08:07:11;;;;;;;7.68;1.17;;;5.30;99.90;;;;;;6211877;23;20020;-78
2023/11/25 08:09:41;;;;;;;2.00;0.43;;;5.40;99.90;;;;;;6208385;23;20013;-78
2023/11/25 08:12:06;;;;;;;10.52;1.63;;;5.50;99.90;;;;;;6211403;23;20108;-78
2023/11/25 08:14:32;;;;;;;4.75;0.40;;;5.60;99.90;;;;;;6211794;23;20017;-76
2023/11/25 08:16:58;;;;;;;22.52;1.58;;;5.60;99.90;;;;;;6207969;23;20442;-77
2023/11/25 08:19:24;;;;;;;5.15;1.27;;;5.50;99.90;;;;;;6208825;23;20465;-78
2023/11/25 08:21:50;;;;;;;10.48;0.90;;;5.40;99.90;;;;;;6207283;23;20013;-77
2023/11/25 08:24:19;;;;;;;3.75;0.85;;;5.40;99.90;;;;;;6210640;23;20039;-76
2023/11/25 08:26:46;;;;;;;10.05;2.22;;;5.40;99.90;;;;;;6209190;23;20036;-76
2023/11/25 08:29:12;;;;;;;6.95;1.40;;;5.40;99.90;;;;;;6208374;23;20320;-78
2023/11/25 08:31:39;;;;;;;7.00;1.17;;;5.40;99.90;;;;;;6207105;23;20074;-78
2023/11/25 08:34:09;;;;;;;11.07;0.63;;;5.40;99.90;;;;;;6209981;23;20127;-79
2023/11/25 08:36:44;;;;;;;4.95;0.30;;;5.50;99.90;;;;;;6202780;23;20012;-77
2023/11/25 08:39:15;;;;;;;6.80;1.27;;;5.50;99.90;;;;;;6207217;23;20511;-80
2023/11/25 08:41:44;;;;;;;5.35;0.40;;;5.70;99.90;;;;;;6208358;23;20441;-77
2023/11/25 08:44:13;;;;;;;8.80;0.50;;;5.80;99.90;;;;;;6208316;23;20083;-77
2023/11/25 08:46:45;;;;;;;5.20;0.73;;;5.90;99.90;;;;;;6205992;23;20016;-78
2023/11/25 08:49:16;;;;;;;1.92;0.30;;;6.00;99.90;;;;;;6207534;23;20063;-79
2023/11/25 08:51:46;;;;;;;15.90;1.05;;;6.00;99.90;;;;;;6209131;23;20056;-77
2023/11/25 08:54:12;;;;;;;3.92;0.38;;;6.00;99.90;;;;;;6209822;23;20009;-77
2023/11/25 08:56:45;;;;;;;5.40;0.88;;;6.00;99.90;;;;;;6208895;23;20019;-78
2023/11/25 08:59:17;;;;;;;10.73;1.15;;;6.00;99.90;;;;;;6209769;23;20005;-79
2023/11/25 09:01:43;;;;;;;8.32;0.70;;;6.00;99.90;;;;;;6205608;23;20108;-77
2023/11/25 09:04:13;;;;;;;7.30;0.75;;;5.90;99.90;;;;;;6207394;23;20439;-79
2023/11/25 09:06:39;;;;;;;6.30;0.43;;;5.90;99.90;;;;;;6206494;23;20091;-77
2023/11/25 09:09:09;;;;;;;7.38;0.77;;;5.90;99.90;;;;;;6210130;23;20017;-78
2023/11/25 09:11:35;;;;;;;11.53;1.77;;;6.00;99.90;;;;;;6211168;23;20008;-79
2023/11/25 09:14:02;;;;;;;5.57;1.15;;;5.90;99.90;;;;;;6212516;23;20519;-78
2023/11/25 09:16:28;;;;;;;2.88;0.40;;;5.90;99.90;;;;;;6209879;23;20038;-77
2023/11/25 09:18:56;;;;;;;8.70;0.73;;;5.80;99.90;;;;;;6209058;23;20009;-77
2023/11/25 09:21:22;;;;;;;14.13;0.70;;;5.80;99.90;;;;;;6213127;23;20016;-78
2023/11/25 09:23:48;;;;;;;8.90;1.20;;;5.80;99.90;;;;;;6209517;23;20019;-77
2023/11/25 09:26:13;;;;;;;6.55;0.60;;;5.80;99.90;;;;;;6212289;23;20008;-77
2023/11/25 09:28:40;;;;;;;14.73;1.60;;;5.90;99.90;;;;;;6209481;23;20008;-78
2023/11/25 09:31:06;;;;;;;4.57;0.70;;;5.90;99.90;;;;;;6210324;23;20039;-77
2023/11/25 09:33:32;;;;;;;5.35;1.55;;;5.90;99.90;;;;;;6210676;23;20021;-78
2023/11/25 09:35:58;;;;;;;5.45;1.00;;;6.00;99.90;;;;;;6209262;23;20095;-76
2023/11/25 09:38:23;;;;;;;10.52;1.67;;;6.20;99.90;;;;;;6211203;23;20082;-78
2023/11/25 09:40:49;;;;;;;5.95;0.60;;;6.30;99.90;;;;;;6211329;23;20455;-78
2023/11/25 09:43:17;;;;;;;17.65;2.13;;;6.40;99.90;;;;;;6211173;23;20478;-78
2023/11/25 09:45:44;;;;;;;9.68;1.30;;;6.50;99.90;;;;;;6208948;23;20009;-78
2023/11/25 09:48:10;;;;;;;5.65;0.77;;;6.60;99.90;;;;;;6208365;23;20062;-77
2023/11/25 09:50:37;;;;;;;6.95;1.67;;;6.60;99.90;;;;;;6211355;23;20019;-79
2023/11/25 09:53:09;;;;;;;7.55;1.27;;;6.50;99.90;;;;;;6209529;23;20009;-76
2023/11/25 09:55:37;;;;;;;8.57;1.00;;;6.50;99.90;;;;;;6209634;23;20012;-79
2023/11/25 09:58:09;;;;;;;7.97;2.05;;;6.50;99.90;;;;;;6208510;23;20015;-78
2023/11/25 10:00:38;;;;;;;5.82;0.90;;;6.50;99.90;;;;;;6209823;23;20465;-77
2023/11/25 10:03:07;;;;;;;7.85;1.50;;;6.60;99.90;;;;;;6210013;23;20028;-78
2023/11/25 10:05:33;;;;;;;10.45;1.83;;;6.80;99.90;;;;;;6210912;23;20853;-77
2023/11/25 10:07:58;;;;;;;5.88;1.25;;;6.80;99.90;;;;;;6210047;23;20039;-77
2023/11/25 10:10:28;;;;;;;10.93;2.65;;;6.80;99.90;;;;;;6211704;23;20013;-77
2023/11/25 10:12:54;;;;;;;3.30;0.70;;;6.90;99.90;;;;;;6207958;23;20024;-78
2023/11/25 10:15:21;;;;;;;6.93;0.85;;;7.00;99.90;;;;;;6209460;23;20173;-78
2023/11/25 10:17:48;;;;;;;5.28;0.95;;;7.00;99.90;;;;;;6208379;23;20013;-78
2023/11/25 10:20:19;;;;;;;8.32;0.80;;;7.10;99.90;;;;;;6208017;23;20450;-77
2023/11/25 10:22:46;;;;;;;5.88;0.85;;;7.10;99.90;;;;;;6208510;22;20012;-77
2023/11/25 10:25:12;;;;;;;11.95;0.85;;;7.20;99.90;;;;;;6204222;23;20012;-74
2023/11/25 10:27:38;;;;;;;5.57;0.70;;;7.40;99.90;;;;;;6206012;23;20009;-76
2023/11/25 10:30:08;;;;;;;6.72;1.13;;;7.50;99.90;;;;;;6208245;22;20004;-77
2023/11/25 10:32:34;;;;;;;10.40;1.42;;;7.50;99.90;;;;;;6208125;23;20017;-78
2023/11/25 10:35:00;;;;;;;10.27;1.75;;;7.50;99.90;;;;;;6206154;23;20019;-79
2023/11/25 10:37:26;;;;;;;7.47;1.05;;;7.30;99.90;;;;;;6207516;23;20074;-78
2023/11/25 10:39:52;;;;;;;6.15;1.27;;;7.20;99.90;;;;;;6205945;23;20017;-78
2023/11/25 10:42:19;;;;;;;11.18;1.10;;;7.10;99.90;;;;;;6206987;23;20069;-79
2023/11/25 10:44:46;;;;;;;13.63;1.42;;;7.00;99.90;;;;;;6205188;23;20020;-77
2023/11/25 10:47:32;;;;;;;5.03;0.88;;;6.90;99.90;;;;;;6206047;23;20066;-77
2023/11/25 10:50:03;;;;;;;7.68;1.20;;;7.00;99.90;;;;;;6206069;23;20012;-76
2023/11/25 10:52:38;;;;;;;4.28;0.88;;;7.10;99.90;;;;;;6207859;23;20300;-78
2023/11/25 10:55:06;;;;;;;9.18;1.38;;;7.10;99.90;;;;;;6206435;23;20008;-76
2023/11/25 10:57:32;;;;;;;10.13;1.42;;;7.10;99.90;;;;;;6208723;23;20017;-78
2023/11/25 10:59:59;;;;;;;11.00;1.83;;;7.10;99.90;;;;;;6208909;23;20009;-76
2023/11/25 11:02:29;;;;;;;9.80;0.80;;;7.10;99.90;;;;;;6209248;23;20079;-78
2023/11/25 11:05:01;;;;;;;6.85;1.35;;;7.00;99.90;;;;;;6207030;23;20013;-78
2023/11/25 11:07:28;;;;;;;9.63;1.15;;;7.00;99.90;;;;;;6209091;23;20016;-78
2023/11/25 11:09:59;;;;;;;13.57;2.40;;;7.00;99.90;;;;;;6205578;23;20008;-78
2023/11/25 11:12:27;;;;;;;14.25;2.08;;;7.10;99.90;;;;;;6206501;23;20066;-79
2023/11/25 11:15:07;;;;;;;3.92;0.77;;;7.10;99.90;;;;;;6206444;23;20017;-75
2023/11/25 11:17:53;;;;;;;7.87;1.60;;;7.10;99.90;;;;;;6206664;23;20012;-76
2023/11/25 11:20:21;;;;;;;3.83;0.82;;;7.00;99.90;;;;;;6205110;23;20273;-77
2023/11/25 11:22:47;;;;;;;16.02;2.85;;;6.90;99.90;;;;;;6206350;23;20017;-78
2023/11/25 11:25:23;;;;;;;11.25;1.38;;;6.80;99.90;;;;;;6205608;23;20015;-77
2023/11/25 11:28:06;;;;;;;16.17;1.20;;;6.80;99.90;;;;;;6204970;23;20402;-78
2023/11/25 11:30:40;;;;;;;5.32;0.60;;;6.70;99.90;;;;;;6204830;23;20039;-76
2023/11/25 11:33:07;;;;;;;3.53;0.63;;;6.70;99.90;;;;;;6206608;23;20386;-77
2023/11/25 11:35:39;;;;;;;6.85;1.00;;;6.80;99.90;;;;;;6205363;23;20066;-75
2023/11/25 11:38:25;;;;;;;6.10;1.00;;;6.80;99.90;;;;;;6207249;23;20024;-77
2023/11/25 11:41:17;;;;;;;4.65;0.63;;;6.80;99.90;;;;;;6203959;23;20020;-75
2023/11/25 11:44:00;;;;;;;4.88;0.82;;;6.80;99.90;;;;;;6195105;23;20041;-77
2023/11/25 11:46:27;;;;;;;4.13;0.88;;;6.70;99.90;;;;;;6205965;23;20284;-75
2023/11/25 11:48:53;;;;;;;7.88;0.75;;;6.70;99.90;;;;;;6203556;23;20439;-78
2023/11/25 11:51:19;;;;;;;4.15;0.80;;;6.70;99.90;;;;;;6204120;23;20012;-78
2023/11/25 11:53:44;;;;;;;7.38;0.93;;;6.80;99.90;;;;;;6205272;23;20071;-76
2023/11/25 11:56:13;;;;;;;3.60;0.60;;;6.90;99.90;;;;;;6204330;23;20081;-78
2023/11/25 11:58:58;;;;;;;5.25;0.38;;;7.10;99.90;;;;;;6205764;23;20399;-77
2023/11/25 12:01:23;;;;;;;4.65;0.63;;;7.10;99.90;;;;;;6204631;23;20035;-77
2023/11/25 12:03:51;;;;;;;3.92;0.68;;;7.30;99.90;;;;;;6205301;23;20008;-77
2023/11/25 12:06:20;;;;;;;1.02;0.30;;;7.40;99.90;;;;;;6204186;23;20009;-76
2023/11/25 12:08:46;;;;;;;1.70;0.50;;;7.50;99.90;;;;;;6202609;23;20008;-76
2023/11/25 12:11:12;;;;;;;2.53;0.40;;;7.60;99.90;;;;;;6206145;23;20019;-78
2023/11/25 12:13:38;;;;;;;5.15;0.73;;;7.60;99.90;;;;;;6205465;23;20386;-78
2023/11/25 12:16:06;;;;;;;2.92;0.70;;;7.60;99.90;;;;;;6205682;23;20017;-77
2023/11/25 12:18:33;;;;;;;5.35;0.85;;;7.60;99.90;;;;;;6205529;23;20096;-77
2023/11/25 12:21:04;;;;;;;9.18;1.70;;;7.50;99.90;;;;;;6203996;23;20012;-77
2023/11/25 12:23:31;;;;;;;2.78;0.50;;;7.60;99.90;;;;;;6204421;23;20011;-77
2023/11/25 12:25:57;;;;;;;7.63;1.02;;;7.70;99.90;;;;;;6202848;23;20012;-75
2023/11/25 12:28:23;;;;;;;7.07;0.63;;;7.70;99.90;;;;;;6205833;23;20004;-77
2023/11/25 12:30:49;;;;;;;4.30;0.43;;;7.90;99.90;;;;;;6204382;23;20017;-77
2023/11/25 12:33:15;;;;;;;4.63;0.70;;;7.90;99.90;;;;;;6204026;23;20024;-77
2023/11/25 12:35:43;;;;;;;9.80;1.15;;;7.80;99.90;;;;;;6203169;23;20013;-76
2023/11/25 12:38:10;;;;;;;8.23;1.30;;;7.70;99.90;;;;;;6204030;23;20011;-77
2023/11/25 12:40:36;;;;;;;6.18;0.45;;;7.60;99.90;;;;;;6205648;23;20031;-74
2023/11/25 12:43:06;;;;;;;13.27;1.98;;;7.50;99.90;;;;;;6205645;23;20012;-77
2023/11/25 12:45:33;;;;;;;2.72;0.30;;;7.40;99.90;;;;;;6203599;23;20466;-79
2023/11/25 12:48:01;;;;;;;5.88;1.10;;;7.30;99.90;;;;;;6206391;23;20012;-77
2023/11/25 12:50:30;;;;;;;4.53;0.52;;;7.20;99.90;;;;;;6209074;23;20422;-77
2023/11/25 12:53:10;;;;;;;5.38;0.30;;;7.10;99.90;;;;;;6206351;23;20462;-76
2023/11/25 12:55:39;;;;;;;5.63;0.47;;;7.00;99.90;;;;;;6209375;23;20677;-78